Time;durP1;ratioP1;P1;durP2;ratioP2;P2;SDS_P1;SDS_P2;PMS_P1;PMS_P2;Temp;Humidity;BMP_temperature;BMP_pressure;BME280_temperature;BME280_humidity;BME280_pressure;Samples;Min_cycle;Max_cycle;Signal;HPM_P1;HPM_P2
2022/06/21 16:02:00;;;;;;;7.00;3.22;;;23.30;58.50;;;;;;5123541;27;20152;-73
2022/06/21 16:05:01;;;;;;;5.85;2.60;;;23.40;57.90;;;;;;5024201;28;20045;-81
2022/06/21 16:07:33;;;;;;;8.27;2.70;;;23.10;58.80;;;;;;5058355;28;20028;-77
2022/06/21 16:09:58;;;;;;;4.25;2.55;;;23.30;58.80;;;;;;5062338;28;20028;-76
2022/06/21 16:12:26;;;;;;;4.03;2.75;;;23.20;58.50;;;;;;5053082;28;20037;-76
2022/06/21 16:14:54;;;;;;;8.98;2.55;;;24.10;59.60;;;;;;5056043;28;20024;-75
2022/06/21 16:17:22;;;;;;;6.32;2.85;;;23.20;59.80;;;;;;5058617;28;20110;-75
2022/06/21 16:19:51;;;;;;;3.90;2.72;;;22.90;59.90;;;;;;5059701;28;20035;-75
2022/06/21 16:22:17;;;;;;;5.45;2.90;;;23.20;59.70;;;;;;5082738;28;20012;-77
2022/06/21 16:24:57;;;;;;;7.03;2.80;;;22.80;58.80;;;;;;5058832;28;20492;-86
2022/06/21 16:27:42;;;;;;;7.60;2.90;;;24.00;64.50;;;;;;5067384;28;20021;-86
2022/06/21 16:30:21;;;;;;;19.98;3.55;;;23.90;61.70;;;;;;5067476;28;20108;-79
2022/06/21 16:33:22;;;;;;;7.25;2.90;;;23.30;60.20;;;;;;5067534;28;20032;-78
2022/06/21 16:36:24;;;;;;;5.70;2.55;;;23.00;58.70;;;;;;5047230;28;20384;-79
2022/06/21 16:39:27;;;;;;;21.77;19.27;;;22.90;60.20;;;;;;5042189;28;20035;-80
2022/06/21 17:04:39;;;;;;;14.10;7.97;;;24.10;53.60;;;;;;5086586;27;20401;-64
2022/06/21 17:07:13;;;;;;;9.25;2.97;;;24.10;54.00;;;;;;4942133;28;20089;-66
2022/06/21 17:09:51;;;;;;;3.75;2.45;;;23.80;54.70;;;;;;5037189;28;20829;-64
2022/06/21 17:13:07;;;;;;;4.70;2.38;;;23.70;54.40;;;;;;5020635;28;20030;-65
2022/06/21 17:15:35;;;;;;;18.83;5.28;;;23.40;55.00;;;;;;5026846;28;20042;-65
2022/06/21 17:18:15;;;;;;;5.88;2.67;;;23.40;55.80;;;;;;5040759;28;20371;-65
2022/06/21 17:21:21;;;;;;;9.10;2.63;;;23.30;55.00;;;;;;5051873;28;20054;-65
2022/06/21 17:24:06;;;;;;;5.53;3.30;;;23.20;56.10;;;;;;5030946;28;20034;-65
2022/06/21 17:27:02;;;;;;;7.30;2.78;;;23.10;57.20;;;;;;5017168;28;20026;-65
2022/06/21 17:29:49;;;;;;;4.53;3.03;;;23.10;56.30;;;;;;5035002;28;20029;-65
2022/06/21 17:32:15;;;;;;;16.98;3.63;;;23.20;56.80;;;;;;5028311;28;20022;-66
2022/06/21 17:34:59;;;;;;;8.55;2.70;;;23.10;55.70;;;;;;5035899;28;20049;-65
2022/06/21 17:37:51;;;;;;;8.55;2.97;;;23.20;55.90;;;;;;5043053;28;20378;-66
2022/06/21 17:40:23;;;;;;;6.47;2.40;;;23.10;55.90;;;;;;5037869;28;20034;-65
2022/06/21 17:42:59;;;;;;;7.60;3.00;;;23.10;56.60;;;;;;5038997;28;20382;-65
2022/06/21 17:45:36;;;;;;;18.73;5.75;;;23.10;55.00;;;;;;5041399;28;20382;-66
2022/06/21 17:48:24;;;;;;;6.93;3.42;;;23.10;57.00;;;;;;5047709;28;20049;-65
2022/06/21 17:50:56;;;;;;;9.65;3.28;;;23.10;56.30;;;;;;5014040;28;20038;-66
2022/06/21 17:53:42;;;;;;;7.10;3.25;;;23.00;56.70;;;;;;5008020;28;20105;-65
2022/06/21 17:56:40;;;;;;;12.90;5.97;;;22.90;56.50;;;;;;5040664;28;20041;-65
2022/06/21 17:59:09;;;;;;;8.73;4.75;;;22.80;57.90;;;;;;5012119;28;20414;-66
2022/06/21 18:01:44;;;;;;;9.30;4.32;;;22.70;58.10;;;;;;5007988;28;20026;-66
2022/06/21 18:04:19;;;;;;;10.10;3.40;;;22.60;57.30;;;;;;5007457;28;20049;-66
2022/06/21 18:06:49;;;;;;;9.93;4.43;;;22.60;57.10;;;;;;5040754;28;20115;-66
2022/06/21 18:09:50;;;;;;;19.23;5.90;;;22.50;57.30;;;;;;5037735;28;20034;-66
2022/06/21 18:12:19;;;;;;;10.88;3.45;;;22.50;60.00;;;;;;5045520;28;20033;-66
2022/06/21 18:14:46;;;;;;;13.00;3.83;;;22.40;57.40;;;;;;5017764;28;20048;-66
2022/06/21 18:17:23;;;;;;;11.05;4.10;;;22.50;60.20;;;;;;4995719;28;20045;-67
2022/06/21 18:19:58;;;;;;;14.32;3.55;;;22.40;57.10;;;;;;4995590;28;20076;-66
2022/06/21 18:22:59;;;;;;;8.15;3.00;;;22.50;59.00;;;;;;5027350;28;20038;-65
2022/06/21 18:25:43;;;;;;;7.28;2.47;;;22.40;59.40;;;;;;5009070;28;20433;-66
2022/06/21 18:28:18;;;;;;;9.50;3.53;;;22.40;57.50;;;;;;5009461;28;20053;-67
2022/06/21 18:31:00;;;;;;;7.03;3.05;;;22.40;58.50;;;;;;5008111;28;20058;-67
2022/06/21 18:33:25;;;;;;;8.75;3.40;;;22.30;58.20;;;;;;4996736;28;20562;-67
2022/06/21 18:35:56;;;;;;;10.55;3.90;;;22.40;59.60;;;;;;5006821;28;20101;-67
2022/06/21 18:38:34;;;;;;;8.20;3.05;;;22.40;59.10;;;;;;5021026;28;20065;-67
2022/06/21 18:41:40;;;;;;;19.33;5.78;;;22.30;58.70;;;;;;4996523;28;20041;-66
2022/06/21 18:44:22;;;;;;;13.55;4.80;;;22.40;59.70;;;;;;4998833;28;20022;-67
2022/06/21 18:46:58;;;;;;;8.32;3.20;;;22.20;60.90;;;;;;5005925;28;20026;-69
2022/06/21 18:50:09;;;;;;;6.18;3.78;;;22.20;60.10;;;;;;4994028;28;20033;-67
2022/06/21 18:52:53;;;;;;;17.27;5.20;;;22.20;60.90;;;;;;5010809;28;20100;-68
2022/06/21 18:55:22;;;;;;;53.45;14.32;;;22.00;61.90;;;;;;5046305;28;20030;-67
2022/06/21 18:58:26;;;;;;;13.60;6.10;;;22.20;61.70;;;;;;5013488;28;20033;-67
2022/06/21 19:01:14;;;;;;;17.17;5.80;;;22.00;62.00;;;;;;5038935;28;20030;-67
2022/06/21 19:09:49;;;;;;;14.02;4.10;;;21.70;60.00;;;;;;4990590;28;20505;-66
2022/06/21 19:15:29;;;;;;;16.13;4.68;;;21.50;61.10;;;;;;5003000;28;20030;-67
2022/06/21 19:18:12;;;;;;;14.95;4.88;;;21.50;61.90;;;;;;4994739;28;20068;-67
2022/06/21 19:21:01;;;;;;;55.22;15.38;;;21.50;61.90;;;;;;5023712;28;20037;-68
2022/06/21 19:23:43;;;;;;;11.48;3.05;;;21.40;62.50;;;;;;4981950;28;20113;-67
2022/06/21 19:26:19;;;;;;;8.57;2.63;;;21.30;61.10;;;;;;5040259;28;20038;-67
2022/06/21 19:29:23;;;;;;;9.23;3.00;;;21.40;61.50;;;;;;5019141;28;20030;-69
2022/06/21 19:32:02;;;;;;;18.77;4.57;;;21.30;61.00;;;;;;4992870;28;20030;-70
2022/06/21 19:34:57;;;;;;;10.90;2.80;;;21.20;62.60;;;;;;4992098;28;20038;-68
2022/06/21 19:38:00;;;;;;;15.93;4.72;;;21.20;61.60;;;;;;4997513;28;20038;-69
2022/06/21 19:40:43;;;;;;;24.88;5.65;;;21.20;61.40;;;;;;5012414;28;20029;-68
2022/06/21 19:43:33;;;;;;;10.98;4.22;;;21.20;61.10;;;;;;4976881;28;20023;-68
2022/06/21 19:46:31;;;;;;;34.33;8.77;;;21.20;60.90;;;;;;5023346;28;20026;-71
2022/06/21 19:49:07;;;;;;;18.42;10.45;;;21.00;61.30;;;;;;4992994;28;20489;-77
2022/06/21 19:51:56;;;;;;;27.83;16.27;;;21.00;61.10;;;;;;4983302;28;20368;-66
2022/06/21 19:54:44;;;;;;;9.15;3.33;;;20.90;61.30;;;;;;4993044;28;20051;-66
2022/06/21 19:57:44;;;;;;;15.40;7.22;;;20.80;62.40;;;;;;5009625;28;20035;-66
2022/06/21 20:00:10;;;;;;;12.20;7.30;;;20.90;61.30;;;;;;4970749;28;20438;-66
2022/06/21 20:02:45;;;;;;;31.42;18.52;;;20.80;62.30;;;;;;4993678;28;20146;-67
2022/06/21 20:05:37;;;;;;;8.50;5.10;;;20.90;62.10;;;;;;4991470;28;20027;-65
2022/06/21 20:08:15;;;;;;;15.52;5.30;;;20.80;62.40;;;;;;5006639;28;20038;-65
2022/06/21 20:10:44;;;;;;;12.27;4.00;;;20.70;62.60;;;;;;5024906;28;20037;-65
2022/06/21 20:13:17;;;;;;;12.38;5.53;;;20.60;61.70;;;;;;5005795;28;20018;-65
2022/06/21 20:16:10;;;;;;;8.82;2.83;;;20.60;62.10;;;;;;5009300;28;20526;-65
2022/06/21 20:18:44;;;;;;;21.98;3.97;;;20.40;62.60;;;;;;4991421;28;20406;-65
2022/06/21 20:21:26;;;;;;;12.35;4.70;;;20.30;62.80;;;;;;4992902;28;20026;-66
2022/06/21 20:24:49;;;;;;;8.77;2.15;;;20.30;63.10;;;;;;4988532;28;20035;-69
2022/06/21 20:27:57;;;;;;;10.30;2.60;;;20.30;63.90;;;;;;5001693;28;20116;-68
2022/06/21 20:30:30;;;;;;;6.95;2.10;;;20.10;63.30;;;;;;4992639;28;20053;-66
2022/06/21 20:33:01;;;;;;;7.38;1.85;;;19.90;64.20;;;;;;5009078;28;20030;-66
2022/06/21 20:35:37;;;;;;;10.63;2.28;;;19.90;64.00;;;;;;5006622;28;20041;-69
2022/06/21 20:38:12;;;;;;;5.68;2.13;;;19.70;64.80;;;;;;5023959;28;20113;-67
2022/06/21 20:40:43;;;;;;;9.40;2.00;;;19.70;64.90;;;;;;5003300;28;20037;-69
2022/06/21 20:43:13;;;;;;;6.88;1.90;;;19.70;65.30;;;;;;4971917;28;20066;-68
2022/06/21 20:46:05;;;;;;;10.95;2.15;;;19.60;65.40;;;;;;4979468;28;20026;-69
2022/06/21 20:48:54;;;;;;;13.32;2.88;;;19.50;65.10;;;;;;4993044;28;20053;-69
2022/06/21 20:51:24;;;;;;;6.97;1.98;;;19.40;65.40;;;;;;4992477;28;20434;-68
2022/06/21 20:54:05;;;;;;;6.15;1.92;;;19.40;65.20;;;;;;4992806;28;20049;-68
2022/06/21 20:56:40;;;;;;;4.55;1.45;;;19.30;65.70;;;;;;4992697;28;20511;-68
2022/06/21 20:59:07;;;;;;;7.03;1.80;;;19.30;65.20;;;;;;4991955;28;20030;-68
2022/06/21 21:01:42;;;;;;;9.02;2.95;;;19.80;64.80;;;;;;4991463;28;20497;-67
2022/06/21 21:04:19;;;;;;;10.98;3.65;;;19.10;64.50;;;;;;5023453;28;20093;-68
2022/06/21 21:06:45;;;;;;;11.10;2.97;;;19.10;67.00;;;;;;5022744;28;20042;-68
2022/06/21 21:09:39;;;;;;;9.32;4.13;;;19.40;66.40;;;;;;4994500;28;20538;-70
2022/06/21 21:12:08;;;;;;;9.00;4.30;;;19.00;65.90;;;;;;4994672;28;20046;-68
2022/06/21 21:14:34;;;;;;;9.93;3.40;;;19.00;67.20;;;;;;4992753;28;20043;-68
2022/06/21 21:17:04;;;;;;;6.03;1.95;;;18.90;67.50;;;;;;5007268;28;20633;-68
2022/06/21 21:19:37;;;;;;;4.60;1.92;;;18.80;65.60;;;;;;5007156;28;20050;-68
2022/06/21 21:22:14;;;;;;;5.00;1.88;;;18.70;67.10;;;;;;5006843;28;20097;-68
2022/06/21 21:24:43;;;;;;;7.97;1.98;;;18.60;66.90;;;;;;5023436;28;20517;-68
2022/06/21 21:27:14;;;;;;;16.02;3.33;;;18.50;69.20;;;;;;5007310;28;20030;-68
2022/06/21 21:29:41;;;;;;;3.85;1.70;;;18.40;70.50;;;;;;5010818;28;20487;-68
2022/06/21 21:32:29;;;;;;;6.47;2.15;;;18.40;68.60;;;;;;5011040;28;20034;-67
2022/06/21 21:35:14;;;;;;;6.28;1.88;;;18.40;69.50;;;;;;5011080;28;20395;-67
2022/06/21 21:38:02;;;;;;;12.30;2.40;;;18.30;69.20;;;;;;5007961;28;20030;-68
2022/06/21 21:40:41;;;;;;;12.60;3.50;;;18.10;70.70;;;;;;5010250;28;20590;-72
2022/06/21 21:43:19;;;;;;;7.45;2.88;;;17.90;71.20;;;;;;5022312;28;20034;-71
2022/06/21 21:45:55;;;;;;;11.85;2.78;;;17.90;71.40;;;;;;4987856;28;20022;-69
2022/06/21 21:48:21;;;;;;;10.63;2.22;;;17.70;72.90;;;;;;4986927;28;20798;-67
2022/06/21 21:51:29;;;;;;;7.85;2.38;;;17.50;73.30;;;;;;5028053;28;20045;-67
2022/06/21 21:54:02;;;;;;;6.75;1.90;;;17.40;74.10;;;;;;4996991;28;20128;-69
2022/06/21 21:56:38;;;;;;;4.80;2.30;;;17.30;76.20;;;;;;5008052;28;20406;-69
2022/06/21 21:59:06;;;;;;;7.20;2.22;;;17.10;76.90;;;;;;5007011;28;20437;-69
2022/06/21 22:01:34;;;;;;;5.07;2.20;;;16.90;77.90;;;;;;4990809;28;20030;-69
2022/06/21 22:04:21;;;;;;;7.18;2.35;;;16.70;79.60;;;;;;5011442;28;20126;-69
2022/06/21 22:07:14;;;;;;;15.45;3.78;;;16.60;82.30;;;;;;5009969;28;20060;-69
2022/06/21 22:09:58;;;;;;;8.18;2.50;;;16.60;83.50;;;;;;5006405;28;20029;-69
2022/06/21 22:12:27;;;;;;;7.95;2.25;;;16.60;83.20;;;;;;5014811;28;20026;-69
2022/06/21 22:15:05;;;;;;;6.53;1.85;;;16.60;81.90;;;;;;5015757;28;20022;-69
2022/06/21 22:17:52;;;;;;;8.60;2.45;;;16.50;84.30;;;;;;5013457;28;20416;-69
2022/06/21 22:20:39;;;;;;;8.95;2.35;;;16.50;84.80;;;;;;5010100;28;20037;-71
2022/06/21 22:23:23;;;;;;;9.23;2.47;;;16.40;85.50;;;;;;4981373;28;20042;-68
2022/06/21 22:25:54;;;;;;;10.10;2.67;;;16.40;86.70;;;;;;5001121;28;20030;-68
2022/06/21 22:28:38;;;;;;;8.43;3.15;;;16.30;87.20;;;;;;4995585;28;20026;-69
2022/06/21 22:31:13;;;;;;;9.98;3.10;;;16.30;86.80;;;;;;4997517;28;20475;-68
2022/06/21 22:33:39;;;;;;;8.40;2.83;;;16.20;88.40;;;;;;4999156;28;20038;-68
2022/06/21 22:36:05;;;;;;;11.13;2.40;;;16.10;88.70;;;;;;5010657;28;20049;-69
2022/06/21 22:38:30;;;;;;;12.95;2.80;;;16.30;88.90;;;;;;4996554;28;20092;-70
2022/06/21 22:40:59;;;;;;;7.35;2.22;;;16.10;89.90;;;;;;5003809;28;20030;-73
2022/06/21 22:43:28;;;;;;;5.75;2.80;;;16.00;90.00;;;;;;5013356;28;20061;-72
2022/06/21 22:46:00;;;;;;;10.32;2.80;;;16.00;90.70;;;;;;4994785;28;20026;-70
2022/06/21 22:48:36;;;;;;;6.88;2.55;;;15.90;90.90;;;;;;5009668;28;20041;-70
2022/06/21 22:51:04;;;;;;;10.02;2.60;;;15.80;91.20;;;;;;5026660;28;20030;-70
2022/06/21 22:53:36;;;;;;;15.75;4.43;;;15.80;91.50;;;;;;5001390;28;20461;-70
2022/06/21 22:56:02;;;;;;;16.33;4.18;;;15.70;92.00;;;;;;5011895;28;20026;-71
2022/06/21 22:58:38;;;;;;;16.63;4.10;;;15.70;92.40;;;;;;5005400;28;20479;-70
2022/06/21 23:01:09;;;;;;;7.38;3.00;;;15.60;93.30;;;;;;5008699;28;20030;-71
2022/06/21 23:03:43;;;;;;;10.43;3.03;;;15.50;93.10;;;;;;4993694;28;20062;-70
2022/06/21 23:06:18;;;;;;;14.75;3.80;;;15.40;93.60;;;;;;5025980;28;20045;-70
2022/06/21 23:08:44;;;;;;;5.60;3.00;;;15.30;94.20;;;;;;5026571;28;20038;-70
2022/06/21 23:11:18;;;;;;;9.68;2.70;;;15.30;94.70;;;;;;4995603;28;20030;-69
2022/06/21 23:13:47;;;;;;;12.90;3.03;;;15.10;95.40;;;;;;4995082;28;20112;-70
2022/06/21 23:16:16;;;;;;;6.95;2.90;;;15.00;96.00;;;;;;4994840;28;20030;-71
2022/06/21 23:18:42;;;;;;;8.55;2.88;;;14.90;96.70;;;;;;5026549;28;20398;-70
2022/06/21 23:21:47;;;;;;;5.60;2.53;;;14.90;97.10;;;;;;5006113;28;20035;-71
2022/06/21 23:24:14;;;;;;;10.55;3.88;;;14.80;97.60;;;;;;5020438;28;20065;-71
2022/06/21 23:26:45;;;;;;;12.85;5.10;;;14.70;98.00;;;;;;5029264;28;20037;-70
2022/06/21 23:29:16;;;;;;;11.10;4.50;;;14.70;98.20;;;;;;5013027;28;20018;-69
2022/06/21 23:31:48;;;;;;;11.55;4.53;;;14.70;98.30;;;;;;5009841;28;20053;-69
2022/06/21 23:34:13;;;;;;;9.50;3.47;;;14.60;98.70;;;;;;5012855;28;20482;-69
2022/06/21 23:36:43;;;;;;;11.07;4.03;;;14.50;99.00;;;;;;5012695;28;20061;-69
2022/06/21 23:39:09;;;;;;;11.23;4.55;;;14.50;99.00;;;;;;5012055;28;20044;-69
2022/06/21 23:41:35;;;;;;;13.98;6.60;;;14.50;99.30;;;;;;5003465;28;20069;-70
2022/06/21 23:44:02;;;;;;;17.77;7.93;;;14.40;99.20;;;;;;5027144;28;20049;-72
2022/06/21 23:46:50;;;;;;;19.85;9.10;;;14.40;99.30;;;;;;4997181;28;20073;-72
2022/06/21 23:49:28;;;;;;;15.73;8.45;;;14.30;99.60;;;;;;5024919;28;20038;-73
2022/06/21 23:51:54;;;;;;;18.33;8.18;;;14.20;99.90;;;;;;5005057;28;20022;-71
2022/06/21 23:54:20;;;;;;;17.35;9.55;;;14.20;99.90;;;;;;5025048;28;20033;-71
2022/06/21 23:56:47;;;;;;;17.55;9.85;;;14.20;99.90;;;;;;4995170;28;20030;-69
2022/06/21 23:59:14;;;;;;;18.35;9.70;;;14.20;99.90;;;;;;5011534;28;20034;-70
